Time;durP1;ratioP1;P1;durP2;ratioP2;P2;SDS_P1;SDS_P2;PMS_P1;PMS_P2;Temp;Humidity;BMP_temperature;BMP_pressure;BME280_temperature;BME280_humidity;BME280_pressure;Samples;Min_cycle;Max_cycle;Signal;HPM_P1;HPM_P2
2021/03/16 00:02:12;;;;;;;10.73;3.85;;;;;;;;;;5038897;28;20136;-56
2021/03/16 00:04:39;;;;;;;6.60;3.70;;;;;;;;;;5038839;28;20060;-56
2021/03/16 00:07:07;;;;;;;10.60;3.92;;;;;;;;;;5038830;28;20033;-56
2021/03/16 00:09:34;;;;;;;9.98;3.38;;;;;;;;;;5038954;28;20052;-56
2021/03/16 00:12:01;;;;;;;13.40;3.70;;;;;;;;;;5038934;28;20025;-56
2021/03/16 00:14:28;;;;;;;9.48;3.55;;;;;;;;;;5038757;28;20021;-56
2021/03/16 00:16:54;;;;;;;8.27;3.78;;;;;;;;;;5038970;28;20048;-56
2021/03/16 00:19:21;;;;;;;15.80;4.63;;;;;;;;;;5038946;28;20596;-56
2021/03/16 00:21:48;;;;;;;14.85;4.10;;;;;;;;;;5038636;28;20037;-56
2021/03/16 00:24:15;;;;;;;11.90;3.93;;;;;;;;;;5038747;28;20022;-55
2021/03/16 00:26:42;;;;;;;11.67;3.00;;;;;;;;;;5038807;28;20026;-56
2021/03/16 00:29:08;;;;;;;11.57;3.67;;;;;;;;;;5038647;28;20472;-56
2021/03/16 00:31:35;;;;;;;8.37;3.37;;;;;;;;;;5038783;28;20029;-56
2021/03/16 00:34:02;;;;;;;8.27;3.67;;;;;;;;;;5020833;28;20032;-56
2021/03/16 00:36:29;;;;;;;11.70;4.17;;;;;;;;;;5034851;28;20021;-56
2021/03/16 00:38:56;;;;;;;29.13;12.77;;;;;;;;;;5035646;28;20044;-56
2021/03/16 00:41:22;;;;;;;12.93;4.33;;;;;;;;;;5035550;28;20142;-56
2021/03/16 00:43:51;;;;;;;11.43;4.20;;;;;;;;;;5035576;28;20022;-56
2021/03/16 00:46:18;;;;;;;11.97;4.17;;;;;;;;;;5036795;28;20053;-56
2021/03/16 00:48:47;;;;;;;10.23;4.30;;;;;;;;;;5036092;28;20029;-56
2021/03/16 00:51:14;;;;;;;14.03;4.90;;;;;;;;;;5035363;28;20040;-56
2021/03/16 00:53:41;;;;;;;8.40;4.03;;;;;;;;;;5017513;28;20489;-56
2021/03/16 00:56:08;;;;;;;17.77;6.70;;;;;;;;;;5035092;28;20022;-56
2021/03/16 00:58:34;;;;;;;17.90;8.97;;;;;;;;;;5035325;28;20029;-56
2021/03/16 01:01:01;;;;;;;13.67;4.57;;;;;;;;;;5035210;28;20128;-56
2021/03/16 01:03:28;;;;;;;13.47;4.47;;;;;;;;;;5034977;28;20059;-56
2021/03/16 01:05:56;;;;;;;15.00;4.33;;;;;;;;;;5035206;28;20476;-56
2021/03/16 01:08:23;;;;;;;13.03;4.57;;;;;;;;;;5035143;28;20037;-55
2021/03/16 01:10:51;;;;;;;17.17;4.70;;;;;;;;;;5035007;28;20080;-56
2021/03/16 01:13:18;;;;;;;17.97;8.53;;;;;;;;;;5034980;28;20029;-56
2021/03/16 01:15:45;;;;;;;29.87;14.43;;;;;;;;;;5034838;28;20033;-56
2021/03/16 01:18:12;;;;;;;26.47;13.40;;;;;;;;;;5034858;28;20491;-56
2021/03/16 01:20:39;;;;;;;31.27;15.13;;;;;;;;;;5034621;28;20491;-56
2021/03/16 01:23:06;;;;;;;41.47;21.93;;;;;;;;;;5034774;28;20037;-56
2021/03/16 01:25:33;;;;;;;46.23;24.20;;;;;;;;;;5034692;28;20025;-56
2021/03/16 01:27:59;;;;;;;29.53;13.53;;;;;;;;;;5034571;28;20025;-56
2021/03/16 01:30:27;;;;;;;43.33;21.60;;;;;;;;;;5034557;28;20040;-55
2021/03/16 01:32:54;;;;;;;14.40;6.20;;;;;;;;;;5034709;28;20025;-56
2021/03/16 01:35:21;;;;;;;12.97;6.53;;;;;;;;;;5034486;28;20060;-56
2021/03/16 01:37:49;;;;;;;45.40;23.60;;;;;;;;;;5034536;28;20029;-56
2021/03/16 01:40:17;;;;;;;33.53;15.73;;;;;;;;;;5016631;28;20084;-56
2021/03/16 01:42:44;;;;;;;32.17;15.97;;;;;;;;;;5016485;28;20444;-56
2021/03/16 01:45:16;;;;;;;31.40;14.63;;;;;;;;;;5034909;28;20060;-57
2021/03/16 01:47:51;;;;;;;34.50;17.37;;;;;;;;;;5015460;28;20514;-56
2021/03/16 01:50:21;;;;;;;27.08;12.93;;;;;;;;;;5034182;28;20033;-56
2021/03/16 01:52:51;;;;;;;15.03;6.73;;;;;;;;;;5034149;28;20035;-56
2021/03/16 01:55:18;;;;;;;16.27;6.00;;;;;;;;;;5034776;28;20114;-56
2021/03/16 01:57:46;;;;;;;16.27;7.30;;;;;;;;;;5034183;28;20029;-56
2021/03/16 02:00:12;;;;;;;41.40;19.97;;;;;;;;;;5034117;28;20026;-55
2021/03/16 02:02:39;;;;;;;33.40;16.07;;;;;;;;;;5033823;28;20547;-56
2021/03/16 02:05:07;;;;;;;29.43;14.03;;;;;;;;;;5033915;28;20425;-55
2021/03/16 02:07:36;;;;;;;39.87;18.90;;;;;;;;;;5033932;28;20048;-56
2021/03/16 02:10:08;;;;;;;50.23;25.40;;;;;;;;;;5033894;28;20029;-55
2021/03/16 02:12:56;;;;;;;39.63;19.50;;;;;;;;;;5033744;28;20056;-55
2021/03/16 02:15:27;;;;;;;34.77;15.27;;;;;;;;;;5033628;28;20036;-55
2021/03/16 02:17:55;;;;;;;25.60;12.00;;;;;;;;;;5033797;28;20045;-56
2021/03/16 02:20:42;;;;;;;21.13;10.57;;;;;;;;;;5033681;28;20100;-55
2021/03/16 02:23:09;;;;;;;44.10;19.90;;;;;;;;;;5017266;28;20061;-55
2021/03/16 02:25:36;;;;;;;35.13;16.73;;;;;;;;;;5033599;28;20025;-55
2021/03/16 02:28:10;;;;;;;11.47;5.70;;;;;;;;;;5033464;28;20465;-55
2021/03/16 02:30:41;;;;;;;20.65;10.18;;;;;;;;;;5033521;28;20060;-55
2021/03/16 02:33:10;;;;;;;47.23;21.23;;;;;;;;;;5033326;28;20469;-55
2021/03/16 02:35:37;;;;;;;27.30;13.23;;;;;;;;;;5033458;28;20029;-55
2021/03/16 02:38:05;;;;;;;58.60;28.30;;;;;;;;;;5033307;28;20052;-55
2021/03/16 02:40:34;;;;;;;27.27;14.77;;;;;;;;;;5033573;28;20052;-55
2021/03/16 02:43:02;;;;;;;13.23;7.37;;;;;;;;;;5033184;28;20030;-55
2021/03/16 02:45:30;;;;;;;7.97;4.20;;;;;;;;;;5034604;28;20404;-55
2021/03/16 02:48:00;;;;;;;13.43;3.97;;;;;;;;;;5033250;28;20021;-55
2021/03/16 02:50:27;;;;;;;9.03;3.93;;;;;;;;;;5033228;28;20029;-55
2021/03/16 02:52:55;;;;;;;8.07;3.90;;;;;;;;;;5033028;28;20100;-55
2021/03/16 02:55:23;;;;;;;8.27;3.60;;;;;;;;;;5033149;28;20033;-55
2021/03/16 02:57:50;;;;;;;15.63;4.60;;;;;;;;;;5032798;28;20047;-55
2021/03/16 03:00:17;;;;;;;8.83;4.23;;;;;;;;;;5033060;28;20025;-55
2021/03/16 03:02:46;;;;;;;6.80;3.87;;;;;;;;;;5032925;28;20048;-55
2021/03/16 03:05:13;;;;;;;12.40;3.90;;;;;;;;;;5032865;28;20045;-55
2021/03/16 03:07:41;;;;;;;9.63;4.03;;;;;;;;;;5032958;28;20033;-55
2021/03/16 03:10:08;;;;;;;8.30;3.90;;;;;;;;;;5032943;28;20472;-55
2021/03/16 03:12:35;;;;;;;6.37;4.50;;;;;;;;;;5032859;28;20108;-55
2021/03/16 03:15:02;;;;;;;10.00;4.50;;;;;;;;;;5032922;28;20033;-55
2021/03/16 03:17:28;;;;;;;11.03;4.40;;;;;;;;;;5032843;28;20088;-55
2021/03/16 03:19:55;;;;;;;6.47;4.43;;;;;;;;;;5032765;28;20033;-55
2021/03/16 03:22:24;;;;;;;9.00;4.67;;;;;;;;;;5032803;28;20205;-55
2021/03/16 03:24:54;;;;;;;8.43;5.13;;;;;;;;;;5032632;28;20025;-55
2021/03/16 03:27:25;;;;;;;14.73;5.07;;;;;;;;;;5032782;28;20385;-55
2021/03/16 03:29:54;;;;;;;11.57;5.17;;;;;;;;;;5032593;28;20032;-55
2021/03/16 03:32:24;;;;;;;11.40;6.00;;;;;;;;;;5032685;28;20029;-55
2021/03/16 03:34:51;;;;;;;9.20;4.93;;;;;;;;;;5032505;28;20041;-55
2021/03/16 03:37:21;;;;;;;14.87;5.43;;;;;;;;;;5032708;28;20049;-55
2021/03/16 03:39:48;;;;;;;9.07;4.97;;;;;;;;;;5032479;28;20029;-54
2021/03/16 03:42:16;;;;;;;15.50;4.30;;;;;;;;;;5032406;28;20444;-54
2021/03/16 03:44:45;;;;;;;10.10;4.47;;;;;;;;;;5033595;28;20117;-55
2021/03/16 03:47:12;;;;;;;15.67;4.57;;;;;;;;;;5032556;28;20120;-54
2021/03/16 03:49:40;;;;;;;12.87;4.70;;;;;;;;;;5032467;28;20060;-54
2021/03/16 03:52:08;;;;;;;6.73;4.03;;;;;;;;;;5014680;28;20592;-54
2021/03/16 03:54:36;;;;;;;8.70;4.17;;;;;;;;;;5032093;28;20033;-54
2021/03/16 03:57:04;;;;;;;11.23;4.17;;;;;;;;;;5032421;28;20044;-54
2021/03/16 03:59:31;;;;;;;11.17;4.33;;;;;;;;;;5032455;28;20028;-54
2021/03/16 04:01:59;;;;;;;11.60;4.40;;;;;;;;;;5032354;28;20033;-54
2021/03/16 04:04:28;;;;;;;9.57;4.07;;;;;;;;;;5032542;28;20091;-55
2021/03/16 04:06:59;;;;;;;8.90;4.03;;;;;;;;;;5032290;28;20092;-54
2021/03/16 04:09:26;;;;;;;6.70;4.17;;;;;;;;;;5014657;28;20026;-54
2021/03/16 04:11:53;;;;;;;11.37;4.63;;;;;;;;;;5035998;28;20018;-54
2021/03/16 04:14:20;;;;;;;8.50;3.73;;;;;;;;;;5036092;28;20539;-54
2021/03/16 04:16:47;;;;;;;9.93;4.40;;;;;;;;;;5035881;28;20376;-55
2021/03/16 04:19:15;;;;;;;9.37;4.33;;;;;;;;;;5035699;28;20476;-54
2021/03/16 04:21:43;;;;;;;9.53;3.90;;;;;;;;;;5035800;28;20021;-55
2021/03/16 04:24:10;;;;;;;7.43;4.40;;;;;;;;;;5035893;28;20021;-55
2021/03/16 04:26:36;;;;;;;8.57;4.20;;;;;;;;;;5035712;28;20434;-55
2021/03/16 04:29:03;;;;;;;11.43;4.97;;;;;;;;;;5035825;28;20029;-55
2021/03/16 04:31:30;;;;;;;9.37;4.37;;;;;;;;;;5035570;28;20026;-55
2021/03/16 04:33:57;;;;;;;8.33;4.20;;;;;;;;;;5018205;28;20029;-55
2021/03/16 04:36:24;;;;;;;13.37;4.13;;;;;;;;;;5035587;28;20018;-54
2021/03/16 04:38:50;;;;;;;8.33;3.97;;;;;;;;;;5035451;28;20039;-55
2021/03/16 04:41:17;;;;;;;12.17;4.30;;;;;;;;;;5035507;28;20488;-54
2021/03/16 04:43:45;;;;;;;8.93;3.77;;;;;;;;;;5035619;28;20493;-55
2021/03/16 04:46:12;;;;;;;11.93;4.20;;;;;;;;;;5036842;28;20045;-54
2021/03/16 04:48:40;;;;;;;8.30;3.70;;;;;;;;;;5035305;28;20052;-55
2021/03/16 04:51:07;;;;;;;7.77;4.17;;;;;;;;;;5035322;28;20026;-55
2021/03/16 04:53:34;;;;;;;9.50;4.03;;;;;;;;;;5035370;28;20029;-55
2021/03/16 04:56:01;;;;;;;10.47;4.20;;;;;;;;;;5035307;28;20053;-54
2021/03/16 04:58:28;;;;;;;8.57;4.03;;;;;;;;;;5035141;28;20036;-55
2021/03/16 05:00:54;;;;;;;8.27;3.60;;;;;;;;;;5035515;28;20543;-54
2021/03/16 05:03:21;;;;;;;10.23;3.93;;;;;;;;;;5035097;28;20056;-54
2021/03/16 05:05:48;;;;;;;8.83;4.00;;;;;;;;;;5035175;28;20493;-54
2021/03/16 05:08:15;;;;;;;6.80;3.90;;;;;;;;;;5035041;28;20396;-54
2021/03/16 05:10:41;;;;;;;10.43;3.60;;;;;;;;;;5035117;28;20376;-54
2021/03/16 05:13:10;;;;;;;8.83;3.47;;;;;;;;;;5034873;28;20077;-54
2021/03/16 05:15:37;;;;;;;11.10;3.93;;;;;;;;;;5034817;28;20029;-54
2021/03/16 05:18:04;;;;;;;8.20;3.97;;;;;;;;;;5034827;28;20017;-54
2021/03/16 05:20:31;;;;;;;8.13;4.33;;;;;;;;;;5034754;28;20026;-54
2021/03/16 05:22:57;;;;;;;10.87;3.93;;;;;;;;;;5034678;28;20126;-54
2021/03/16 05:25:24;;;;;;;7.87;4.87;;;;;;;;;;5034831;28;20048;-54
2021/03/16 05:27:51;;;;;;;10.97;5.67;;;;;;;;;;5034713;28;20056;-54
2021/03/16 05:30:18;;;;;;;10.83;4.60;;;;;;;;;;5034683;28;20033;-54
2021/03/16 05:32:45;;;;;;;6.77;4.20;;;;;;;;;;5034578;28;20473;-54
2021/03/16 05:35:12;;;;;;;16.13;5.40;;;;;;;;;;5034728;28;20037;-54
2021/03/16 05:37:39;;;;;;;11.53;5.00;;;;;;;;;;5034498;28;20389;-54
2021/03/16 05:40:06;;;;;;;12.50;4.80;;;;;;;;;;5034532;28;20029;-54
2021/03/16 05:42:33;;;;;;;9.63;4.73;;;;;;;;;;5034327;28;20388;-54
2021/03/16 05:45:00;;;;;;;13.33;6.80;;;;;;;;;;5035466;28;20047;-55
2021/03/16 05:47:27;;;;;;;10.30;5.70;;;;;;;;;;5034647;28;20039;-54
2021/03/16 05:49:57;;;;;;;9.37;5.10;;;;;;;;;;5034287;28;20398;-54
2021/03/16 05:52:24;;;;;;;11.73;6.47;;;;;;;;;;5034160;28;20032;-54
2021/03/16 05:54:54;;;;;;;11.07;5.00;;;;;;;;;;5034070;28;20026;-54
2021/03/16 05:57:21;;;;;;;8.97;4.20;;;;;;;;;;5034168;28;20032;-54
2021/03/16 05:59:49;;;;;;;18.27;7.27;;;;;;;;;;5034020;28;20083;-54
2021/03/16 06:02:16;;;;;;;19.47;8.13;;;;;;;;;;5033607;28;20041;-54
2021/03/16 06:04:43;;;;;;;10.60;5.30;;;;;;;;;;5034113;28;20053;-54
2021/03/16 06:07:13;;;;;;;12.53;6.27;;;;;;;;;;5033688;28;20548;-54
2021/03/16 06:09:40;;;;;;;7.43;4.57;;;;;;;;;;5033858;28;20021;-54
2021/03/16 06:12:08;;;;;;;11.60;4.67;;;;;;;;;;5033734;28;20448;-54
2021/03/16 06:14:36;;;;;;;10.77;4.40;;;;;;;;;;5033833;28;20025;-54
2021/03/16 06:17:03;;;;;;;5.63;4.07;;;;;;;;;;5033672;28;20036;-54
2021/03/16 06:19:31;;;;;;;6.30;3.37;;;;;;;;;;5033558;28;20477;-54
2021/03/16 06:21:59;;;;;;;6.43;3.83;;;;;;;;;;5033460;28;20548;-54
2021/03/16 06:24:26;;;;;;;8.50;3.87;;;;;;;;;;5033526;28;20064;-54
2021/03/16 06:26:53;;;;;;;9.90;4.50;;;;;;;;;;5015823;28;20025;-54
2021/03/16 06:29:19;;;;;;;11.17;4.63;;;;;;;;;;5033587;28;20398;-54
2021/03/16 06:31:46;;;;;;;10.53;4.93;;;;;;;;;;5033254;28;20448;-54
2021/03/16 06:34:20;;;;;;;11.23;5.03;;;;;;;;;;5032787;28;20053;-54
2021/03/16 06:36:48;;;;;;;9.83;4.90;;;;;;;;;;5033382;28;20460;-54
2021/03/16 06:39:19;;;;;;;7.80;3.97;;;;;;;;;;5033422;28;20255;-54
2021/03/16 06:41:45;;;;;;;6.33;3.50;;;;;;;;;;5033218;28;20385;-54
2021/03/16 06:44:16;;;;;;;9.43;4.60;;;;;;;;;;5033342;28;20025;-54
2021/03/16 06:46:43;;;;;;;8.23;4.43;;;;;;;;;;5034624;28;20061;-54
2021/03/16 06:49:17;;;;;;;10.23;4.63;;;;;;;;;;5033251;28;20021;-54
2021/03/16 06:51:45;;;;;;;10.37;4.33;;;;;;;;;;5033258;28;20032;-54
2021/03/16 06:54:13;;;;;;;10.13;4.70;;;;;;;;;;5033138;28;20291;-54
2021/03/16 06:56:39;;;;;;;6.53;3.23;;;;;;;;;;5033145;28;20021;-54
2021/03/16 06:59:06;;;;;;;7.97;4.20;;;;;;;;;;5032965;28;20022;-54
2021/03/16 07:01:34;;;;;;;8.20;4.30;;;;;;;;;;5032956;28;20044;-54
2021/03/16 07:04:12;;;;;;;6.47;3.70;;;;;;;;;;5033079;28;20079;-54
2021/03/16 07:06:40;;;;;;;8.87;3.90;;;;;;;;;;5033023;28;20056;-54
2021/03/16 07:09:07;;;;;;;6.53;3.97;;;;;;;;;;5032836;28;20033;-54
2021/03/16 07:11:36;;;;;;;7.67;4.50;;;;;;;;;;5032788;28;20029;-54
2021/03/16 07:14:04;;;;;;;8.97;4.67;;;;;;;;;;5032866;28;20528;-54
2021/03/16 07:16:31;;;;;;;7.73;4.50;;;;;;;;;;5032828;28;20376;-54
2021/03/16 07:18:58;;;;;;;7.23;4.50;;;;;;;;;;5032823;28;20072;-54
2021/03/16 07:21:29;;;;;;;8.87;4.07;;;;;;;;;;5032635;28;20032;-54
2021/03/16 07:24:00;;;;;;;8.43;4.00;;;;;;;;;;5032809;28;20046;-54
2021/03/16 07:26:27;;;;;;;9.63;5.27;;;;;;;;;;5014999;28;20477;-54
2021/03/16 07:28:54;;;;;;;8.33;4.33;;;;;;;;;;5032764;28;20040;-54
2021/03/16 07:31:20;;;;;;;7.83;5.13;;;;;;;;;;5032951;28;20021;-54
2021/03/16 07:33:47;;;;;;;11.30;4.77;;;;;;;;;;5032560;28;20037;-54
2021/03/16 07:36:14;;;;;;;6.83;4.37;;;;;;;;;;5032520;28;20087;-54
2021/03/16 07:38:41;;;;;;;7.43;4.97;;;;;;;;;;5032699;28;20030;-54
2021/03/16 07:41:09;;;;;;;7.10;4.03;;;;;;;;;;5032494;28;20116;-54
2021/03/16 07:43:36;;;;;;;9.40;4.33;;;;;;;;;;5032602;28;20032;-54
2021/03/16 07:46:12;;;;;;;7.57;4.57;;;;;;;;;;5037912;28;20378;-54
2021/03/16 07:48:44;;;;;;;7.00;4.37;;;;;;;;;;5036500;28;20381;-54
2021/03/16 07:51:21;;;;;;;8.47;4.50;;;;;;;;;;5036552;28;20021;-54
2021/03/16 07:54:07;;;;;;;8.10;4.20;;;;;;;;;;5036382;28;20026;-54
2021/03/16 07:56:35;;;;;;;6.13;3.77;;;;;;;;;;5036371;28;20085;-54
2021/03/16 07:59:03;;;;;;;10.07;4.47;;;;;;;;;;5036448;28;20053;-54
2021/03/16 08:01:29;;;;;;;6.93;4.27;;;;;;;;;;5036203;28;20040;-54
2021/03/16 08:04:09;;;;;;;11.83;5.03;;;;;;;;;;5036202;28;20021;-54
2021/03/16 08:06:36;;;;;;;8.30;4.10;;;;;;;;;;5036039;28;20104;-54
2021/03/16 08:09:04;;;;;;;6.63;4.37;;;;;;;;;;5036111;28;20050;-54
2021/03/16 08:11:41;;;;;;;6.23;4.40;;;;;;;;;;5036085;28;20028;-54
2021/03/16 08:14:09;;;;;;;9.20;5.00;;;;;;;;;;5036208;28;20026;-54
2021/03/16 08:16:39;;;;;;;7.47;4.43;;;;;;;;;;5036057;28;20022;-54
2021/03/16 08:19:19;;;;;;;8.73;4.57;;;;;;;;;;5035941;28;20033;-54
2021/03/16 08:21:47;;;;;;;6.27;4.30;;;;;;;;;;5035866;28;20022;-54
2021/03/16 08:24:15;;;;;;;5.37;3.83;;;;;;;;;;5035884;28;20036;-54
2021/03/16 08:26:53;;;;;;;6.43;4.23;;;;;;;;;;5035700;28;20029;-54
2021/03/16 08:29:27;;;;;;;5.67;4.10;;;;;;;;;;5035797;28;20384;-54
2021/03/16 08:31:54;;;;;;;6.93;3.97;;;;;;;;;;5035568;28;20030;-54
2021/03/16 08:34:22;;;;;;;7.60;4.50;;;;;;;;;;5035745;28;20021;-54
2021/03/16 08:36:49;;;;;;;7.40;4.00;;;;;;;;;;5035872;28;20025;-54
2021/03/16 08:39:26;;;;;;;6.20;4.20;;;;;;;;;;5035682;28;20029;-54
2021/03/16 08:41:57;;;;;;;8.70;4.40;;;;;;;;;;5035552;28;20559;-54
2021/03/16 08:44:28;;;;;;;7.40;4.57;;;;;;;;;;5035546;28;20029;-54
2021/03/16 08:46:59;;;;;;;7.73;5.03;;;;;;;;;;5036663;28;20057;-54
2021/03/16 08:49:26;;;;;;;8.43;4.73;;;;;;;;;;5035428;28;20349;-53
2021/03/16 08:51:53;;;;;;;7.53;5.20;;;;;;;;;;5035383;28;20029;-54
2021/03/16 08:54:27;;;;;;;11.10;5.00;;;;;;;;;;5035213;28;20022;-54
2021/03/16 08:56:54;;;;;;;9.52;4.75;;;;;;;;;;5034759;28;20034;-54
2021/03/16 08:59:21;;;;;;;6.37;4.37;;;;;;;;;;5035163;28;20109;-54
2021/03/16 09:01:52;;;;;;;7.13;4.83;;;;;;;;;;5035021;28;20394;-54
2021/03/16 09:04:20;;;;;;;8.83;4.23;;;;;;;;;;5035150;28;20036;-54
2021/03/16 09:06:50;;;;;;;7.87;4.63;;;;;;;;;;5035089;28;20021;-54
2021/03/16 09:09:23;;;;;;;11.73;4.60;;;;;;;;;;5035141;28;20024;-54
2021/03/16 09:11:50;;;;;;;8.30;5.67;;;;;;;;;;5034798;28;20465;-54
2021/03/16 09:14:18;;;;;;;8.50;5.17;;;;;;;;;;5035017;28;20488;-54
2021/03/16 09:16:50;;;;;;;9.17;5.27;;;;;;;;;;5034861;28;20083;-54
2021/03/16 09:19:18;;;;;;;6.13;4.40;;;;;;;;;;5034698;28;20049;-54
2021/03/16 09:21:49;;;;;;;10.87;4.70;;;;;;;;;;5034480;28;20042;-54
2021/03/16 09:24:19;;;;;;;6.77;4.13;;;;;;;;;;5034632;28;20065;-54
2021/03/16 09:26:51;;;;;;;11.17;4.83;;;;;;;;;;5034683;28;20053;-54
2021/03/16 09:29:17;;;;;;;7.57;4.77;;;;;;;;;;5034732;28;20059;-54
2021/03/16 09:31:45;;;;;;;7.40;5.03;;;;;;;;;;5034560;28;20049;-54
2021/03/16 09:34:15;;;;;;;9.67;5.77;;;;;;;;;;5034685;28;20021;-53
2021/03/16 09:36:41;;;;;;;9.47;4.93;;;;;;;;;;5034596;28;20036;-54
2021/03/16 09:39:10;;;;;;;8.80;4.93;;;;;;;;;;5034430;28;20116;-54
2021/03/16 09:41:38;;;;;;;9.37;5.10;;;;;;;;;;5034310;28;20489;-53
2021/03/16 09:44:05;;;;;;;8.43;4.43;;;;;;;;;;5034392;28;20057;-54
2021/03/16 09:46:32;;;;;;;9.33;5.53;;;;;;;;;;5035676;28;20062;-54
2021/03/16 09:48:59;;;;;;;9.60;5.23;;;;;;;;;;5034211;28;20030;-54
2021/03/16 09:51:28;;;;;;;8.53;5.13;;;;;;;;;;5034120;28;20033;-54
2021/03/16 09:53:59;;;;;;;6.80;4.50;;;;;;;;;;5034132;28;20138;-54
2021/03/16 09:56:27;;;;;;;10.80;5.70;;;;;;;;;;5034207;28;20041;-54
2021/03/16 09:58:58;;;;;;;6.60;4.63;;;;;;;;;;5034192;28;20028;-54
2021/03/16 10:01:24;;;;;;;10.27;5.40;;;;;;;;;;5034044;28;20029;-54
2021/03/16 10:04:01;;;;;;;8.90;5.17;;;;;;;;;;5034057;28;20036;-54
2021/03/16 10:06:38;;;;;;;11.73;5.63;;;;;;;;;;5033859;28;20032;-54
2021/03/16 10:09:16;;;;;;;7.67;5.00;;;;;;;;;;5032983;28;20033;-54
2021/03/16 10:11:43;;;;;;;9.63;4.97;;;;;;;;;;5033828;28;20469;-53
2021/03/16 10:14:10;;;;;;;7.47;4.90;;;;;;;;;;5033703;28;20112;-54
2021/03/16 10:16:39;;;;;;;7.70;5.23;;;;;;;;;;5033718;28;20025;-54
2021/03/16 10:19:06;;;;;;;8.10;5.43;;;;;;;;;;5033600;28;20029;-54
2021/03/16 10:21:33;;;;;;;8.03;4.97;;;;;;;;;;5033571;28;20034;-54
2021/03/16 10:24:07;;;;;;;9.30;5.80;;;;;;;;;;5033653;28;20108;-54
2021/03/16 10:26:34;;;;;;;9.87;5.80;;;;;;;;;;5033646;28;20025;-54
2021/03/16 10:29:14;;;;;;;7.37;5.20;;;;;;;;;;5033886;28;20053;-54
2021/03/16 10:31:40;;;;;;;8.57;6.07;;;;;;;;;;5033431;28;20053;-54
2021/03/16 10:34:07;;;;;;;8.90;4.97;;;;;;;;;;5034051;28;20025;-54
2021/03/16 10:36:37;;;;;;;7.50;5.60;;;;;;;;;;5033414;28;20247;-54
2021/03/16 10:39:04;;;;;;;10.13;5.00;;;;;;;;;;5033518;28;20021;-54
2021/03/16 10:41:31;;;;;;;8.77;5.20;;;;;;;;;;5033496;28;20373;-54
2021/03/16 10:44:12;;;;;;;8.27;5.07;;;;;;;;;;5033262;28;20278;-54
2021/03/16 10:46:38;;;;;;;8.40;5.20;;;;;;;;;;5034095;28;20298;-54
2021/03/16 10:49:05;;;;;;;6.70;4.87;;;;;;;;;;5033243;28;20262;-53
2021/03/16 10:51:32;;;;;;;8.47;5.00;;;;;;;;;;5033053;28;20259;-54
2021/03/16 10:53:59;;;;;;;8.93;5.43;;;;;;;;;;5033216;28;20026;-54
2021/03/16 10:56:26;;;;;;;6.03;4.57;;;;;;;;;;5033037;28;20257;-54
2021/03/16 10:58:52;;;;;;;8.57;5.17;;;;;;;;;;5033014;28;20259;-54
2021/03/16 11:01:19;;;;;;;7.43;5.43;;;;;;;;;;5032819;28;20306;-53
2021/03/16 11:03:46;;;;;;;7.53;5.17;;;;;;;;;;5033108;28;20266;-54
2021/03/16 11:06:13;;;;;;;7.63;5.20;;;;;;;;;;5032878;28;20235;-53
2021/03/16 11:08:39;;;;;;;8.80;5.50;;;;;;;;;;5032851;28;20273;-54
2021/03/16 11:11:06;;;;;;;7.63;4.87;;;;;;;;;;5032776;28;20326;-53
2021/03/16 11:13:33;;;;;;;11.47;5.27;;;;;;;;;;5032885;28;20251;-53
2021/03/16 11:16:00;;;;;;;8.53;5.47;;;;;;;;;;5033062;28;20286;-54
2021/03/16 11:18:26;;;;;;;7.87;5.30;;;;;;;;;;5032626;28;20247;-54
2021/03/16 11:20:53;;;;;;;9.23;6.10;;;;;;;;;;5032530;28;20302;-54
2021/03/16 11:23:20;;;;;;;8.33;5.73;;;;;;;;;;5032693;28;20255;-53
2021/03/16 11:25:47;;;;;;;8.47;5.80;;;;;;;;;;5032675;28;20313;-53
2021/03/16 11:28:14;;;;;;;8.87;5.20;;;;;;;;;;5032771;28;20286;-54
2021/03/16 11:30:40;;;;;;;7.87;5.20;;;;;;;;;;5032520;28;20317;-54
2021/03/16 11:33:07;;;;;;;8.97;4.90;;;;;;;;;;5032685;28;20251;-54
2021/03/16 11:35:34;;;;;;;8.17;5.20;;;;;;;;;;5032748;28;20251;-53
2021/03/16 11:38:01;;;;;;;9.17;5.53;;;;;;;;;;5032528;28;20383;-54
2021/03/16 11:40:28;;;;;;;10.07;6.30;;;;;;;;;;5032564;28;20337;-53
2021/03/16 11:42:54;;;;;;;11.23;6.90;;;;;;;;;;5032426;28;20296;-54
2021/03/16 11:45:21;;;;;;;10.43;6.40;;;;;;;;;;5033367;28;20254;-54
2021/03/16 11:47:48;;;;;;;10.63;5.57;;;;;;;;;;5032248;28;20290;-53
2021/03/16 11:50:15;;;;;;;9.60;5.03;;;;;;;;;;5032574;28;20346;-54
2021/03/16 11:52:42;;;;;;;10.53;6.00;;;;;;;;;;5032508;28;20305;-54
2021/03/16 11:55:09;;;;;;;11.00;6.57;;;;;;;;;;5032408;28;20259;-53
2021/03/16 11:57:36;;;;;;;14.00;7.13;;;;;;;;;;5032434;28;20333;-53
2021/03/16 12:00:03;;;;;;;10.33;6.43;;;;;;;;;;5014737;28;20289;-54
2021/03/16 12:02:30;;;;;;;13.00;6.83;;;;;;;;;;5032296;28;20292;-53
2021/03/16 12:04:57;;;;;;;9.83;6.27;;;;;;;;;;5032323;28;20247;-54
2021/03/16 12:07:23;;;;;;;11.07;7.23;;;;;;;;;;5032449;28;20267;-54
2021/03/16 12:09:50;;;;;;;10.37;6.47;;;;;;;;;;5032421;28;20250;-53
2021/03/16 12:12:17;;;;;;;12.10;6.40;;;;;;;;;;5032181;28;20250;-53
2021/03/16 12:14:44;;;;;;;10.27;7.17;;;;;;;;;;5032401;28;20243;-53
2021/03/16 12:17:12;;;;;;;10.03;6.27;;;;;;;;;;5032343;28;20330;-53
2021/03/16 12:19:39;;;;;;;8.93;5.73;;;;;;;;;;5032100;28;20259;-53
2021/03/16 12:22:06;;;;;;;10.63;6.93;;;;;;;;;;5032037;28;20365;-54
2021/03/16 12:24:33;;;;;;;17.73;6.50;;;;;;;;;;5032257;28;20726;-53
2021/03/16 12:27:00;;;;;;;9.67;5.50;;;;;;;;;;5032128;28;20255;-53
2021/03/16 12:29:27;;;;;;;13.10;5.77;;;;;;;;;;5032273;28;20262;-54
2021/03/16 12:31:54;;;;;;;11.37;5.97;;;;;;;;;;5034182;28;20282;-53
2021/03/16 12:34:20;;;;;;;13.27;6.60;;;;;;;;;;5035807;28;20262;-53
2021/03/16 12:36:48;;;;;;;9.77;5.27;;;;;;;;;;5035695;28;20259;-53
2021/03/16 12:39:15;;;;;;;8.40;5.17;;;;;;;;;;5035586;28;20270;-54
2021/03/16 12:41:42;;;;;;;9.73;5.50;;;;;;;;;;5035450;28;20434;-53
2021/03/16 12:44:09;;;;;;;14.30;6.97;;;;;;;;;;5035592;28;20263;-54
2021/03/16 12:46:35;;;;;;;14.47;6.53;;;;;;;;;;5036795;28;20283;-53
2021/03/16 12:49:02;;;;;;;9.70;6.47;;;;;;;;;;5035334;28;20265;-53
2021/03/16 12:51:29;;;;;;;15.47;6.57;;;;;;;;;;5035255;28;20242;-53
2021/03/16 12:53:56;;;;;;;9.77;6.07;;;;;;;;;;5035334;28;20792;-53
2021/03/16 12:56:23;;;;;;;9.40;5.63;;;;;;;;;;5035422;28;20579;-54
2021/03/16 12:58:50;;;;;;;15.17;6.07;;;;;;;;;;5035229;28;20258;-53
2021/03/16 13:01:17;;;;;;;8.97;5.63;;;;;;;;;;5035051;28;20626;-53
2021/03/16 13:03:43;;;;;;;14.33;5.83;;;;;;;;;;5035412;28;20255;-53
2021/03/16 13:06:10;;;;;;;14.93;6.97;;;;;;;;;;5035209;28;20243;-54
2021/03/16 13:08:37;;;;;;;8.43;6.00;;;;;;;;;;5035408;28;20263;-53
2021/03/16 13:11:04;;;;;;;15.93;6.23;;;;;;;;;;5035034;28;20247;-53
2021/03/16 13:13:30;;;;;;;13.37;6.70;;;;;;;;;;5034929;28;20262;-53
2021/03/16 13:15:57;;;;;;;25.63;7.73;;;;;;;;;;5034922;28;20812;-53
2021/03/16 13:18:24;;;;;;;13.93;8.30;;;;;;;;;;5034913;28;20262;-53
2021/03/16 13:20:51;;;;;;;13.60;7.20;;;;;;;;;;5034808;28;20255;-53
2021/03/16 13:23:18;;;;;;;14.07;7.80;;;;;;;;;;5034741;28;20261;-54
2021/03/16 13:25:44;;;;;;;9.60;6.70;;;;;;;;;;5034683;28;20269;-53
2021/03/16 13:28:11;;;;;;;12.07;6.20;;;;;;;;;;5034705;28;20597;-54
2021/03/16 13:30:38;;;;;;;18.60;7.33;;;;;;;;;;5034546;28;20254;-54
2021/03/16 13:33:05;;;;;;;14.23;6.60;;;;;;;;;;5034565;28;20258;-54
2021/03/16 13:35:32;;;;;;;15.37;7.23;;;;;;;;;;5034707;28;20282;-54
2021/03/16 13:37:59;;;;;;;16.93;8.50;;;;;;;;;;5034622;28;20418;-54
2021/03/16 13:40:26;;;;;;;18.50;9.40;;;;;;;;;;5034380;28;20266;-54
2021/03/16 13:42:52;;;;;;;13.63;8.43;;;;;;;;;;5034008;28;20333;-54
2021/03/16 13:45:19;;;;;;;14.03;8.43;;;;;;;;;;5034431;28;20029;-54
2021/03/16 13:47:46;;;;;;;18.07;8.17;;;;;;;;;;5034988;28;20056;-54
2021/03/16 13:50:14;;;;;;;13.07;8.10;;;;;;;;;;5034224;28;20032;-54
2021/03/16 13:52:40;;;;;;;15.20;8.00;;;;;;;;;;5034334;28;20381;-53
2021/03/16 13:55:08;;;;;;;17.40;8.90;;;;;;;;;;5034251;28;20025;-53
2021/03/16 13:57:34;;;;;;;30.13;11.07;;;;;;;;;;5034267;28;20046;-54
2021/03/16 14:00:01;;;;;;;21.93;10.13;;;;;;;;;;5034088;28;20112;-54
2021/03/16 14:02:28;;;;;;;26.03;10.53;;;;;;;;;;5033937;28;20029;-54
2021/03/16 14:04:55;;;;;;;29.63;13.50;;;;;;;;;;5034058;28;20048;-54
2021/03/16 14:07:22;;;;;;;52.50;17.10;;;;;;;;;;5034032;28;20019;-54
2021/03/16 14:09:49;;;;;;;37.07;16.90;;;;;;;;;;5033948;28;20448;-54
2021/03/16 14:12:15;;;;;;;31.57;16.13;;;;;;;;;;5033751;28;20423;-54
2021/03/16 14:14:42;;;;;;;34.47;15.87;;;;;;;;;;5034225;28;20076;-54
2021/03/16 14:17:09;;;;;;;26.20;12.43;;;;;;;;;;5033870;28;20022;-54
2021/03/16 14:19:37;;;;;;;24.97;11.90;;;;;;;;;;5033708;28;20049;-54
2021/03/16 14:22:03;;;;;;;24.40;13.20;;;;;;;;;;5033589;28;20403;-54
2021/03/16 14:24:30;;;;;;;19.10;9.37;;;;;;;;;;5033747;28;20022;-54
2021/03/16 14:26:57;;;;;;;18.73;7.63;;;;;;;;;;5033685;28;20026;-54
2021/03/16 14:29:25;;;;;;;13.83;7.17;;;;;;;;;;5033644;28;20021;-54
2021/03/16 14:31:52;;;;;;;18.27;7.20;;;;;;;;;;5033598;28;20033;-54
2021/03/16 14:34:19;;;;;;;13.50;6.40;;;;;;;;;;5033741;28;20025;-54
2021/03/16 14:36:46;;;;;;;13.30;7.00;;;;;;;;;;5033596;28;20292;-54
2021/03/16 14:39:12;;;;;;;12.50;6.60;;;;;;;;;;5033305;28;20038;-54
2021/03/16 14:41:39;;;;;;;12.10;6.33;;;;;;;;;;5033290;28;20029;-54